createdAt,value
2022-12-20T00:01:36.755Z,53.21
2022-12-20T00:04:08.204Z,52.98
2022-12-20T00:06:36.495Z,53.51
2022-12-20T00:09:07.474Z,53.14
2022-12-20T00:11:38.354Z,53.47
2022-12-20T00:14:06.708Z,53.72
2022-12-20T00:16:36.909Z,53.10
2022-12-20T00:19:07.468Z,53.44
2022-12-20T00:21:36.384Z,53.48
2022-12-20T00:24:05.922Z,53.45
2022-12-20T00:26:36.031Z,53.11
2022-12-20T00:29:05.051Z,53.26
2022-12-20T00:31:34.062Z,53.18
2022-12-20T00:34:02.297Z,53.50
2022-12-20T00:36:31.976Z,53.45
2022-12-20T00:39:00.883Z,53.30
2022-12-20T00:41:32.352Z,53.28
2022-12-20T00:44:00.748Z,53.30
2022-12-20T00:46:28.786Z,53.45
2022-12-20T00:48:57.046Z,53.27
2022-12-20T00:51:29.026Z,53.37
2022-12-20T00:53:58.445Z,53.45
2022-12-20T00:56:26.628Z,53.56
2022-12-20T00:58:59.806Z,53.33
2022-12-20T01:01:31.784Z,53.33
2022-12-20T01:04:00.302Z,53.53
2022-12-20T01:06:28.891Z,53.67
2022-12-20T01:08:57.415Z,53.55
2022-12-20T01:11:28.472Z,53.53
2022-12-20T01:14:00.519Z,53.46
2022-12-20T01:16:36.091Z,53.82
2022-12-20T01:19:04.968Z,53.66
2022-12-20T01:21:33.167Z,53.73
2022-12-20T01:24:00.964Z,53.65
2022-12-20T01:26:30.849Z,53.79
2022-12-20T01:29:00.507Z,53.81
2022-12-20T01:31:30.594Z,53.69
2022-12-20T01:33:59.036Z,53.82
2022-12-20T01:36:30.529Z,53.56
2022-12-20T01:39:16.061Z,53.71
2022-12-20T01:41:45.422Z,53.61
2022-12-20T01:44:19.525Z,53.65
2022-12-20T01:46:49.041Z,53.44
2022-12-20T01:49:16.799Z,53.55
2022-12-20T01:51:49.647Z,53.42
2022-12-20T01:54:25.695Z,53.54
2022-12-20T01:56:59.378Z,53.36
2022-12-20T01:59:28.916Z,53.55
2022-12-20T02:02:04.231Z,53.00
2022-12-20T02:04:32.242Z,53.30
2022-12-20T02:07:01.220Z,53.22
2022-12-20T02:09:30.071Z,52.97
2022-12-20T02:12:09.412Z,53.51
2022-12-20T02:15:07.306Z,53.27
2022-12-20T02:18:13.707Z,53.25
2022-12-20T02:21:19.103Z,53.61
2022-12-20T02:24:13.613Z,53.44
2022-12-20T02:26:50.224Z,53.40
2022-12-20T02:29:31.618Z,53.41
2022-12-20T02:32:09.376Z,53.31
2022-12-20T02:34:38.915Z,53.15
2022-12-20T02:37:06.749Z,53.17
2022-12-20T02:39:37.500Z,53.25
2022-12-20T02:42:08.647Z,53.77
2022-12-20T02:45:00.507Z,53.42
2022-12-20T02:47:33.940Z,53.90
2022-12-20T02:50:04.765Z,53.83
2022-12-20T02:52:33.454Z,53.58
2022-12-20T02:55:02.711Z,53.54
2022-12-20T02:58:05.254Z,53.45
2022-12-20T03:00:41.140Z,53.66
2022-12-20T03:03:25.234Z,53.53
2022-12-20T03:05:57.042Z,53.88
2022-12-20T03:08:25.669Z,53.58
2022-12-20T03:10:54.625Z,53.71
2022-12-20T03:13:24.979Z,53.54
2022-12-20T03:15:58.635Z,53.59
2022-12-20T03:18:26.538Z,53.68
2022-12-20T03:20:55.193Z,53.43
2022-12-20T03:23:23.952Z,53.47
2022-12-20T03:25:51.855Z,53.55
2022-12-20T03:28:42.067Z,53.30
2022-12-20T03:31:12.690Z,53.37
2022-12-20T03:33:47.062Z,53.56
2022-12-20T03:36:15.065Z,53.34
2022-12-20T03:38:43.002Z,53.47
2022-12-20T03:41:11.195Z,53.34
2022-12-20T03:43:38.972Z,53.40
2022-12-20T03:46:07.116Z,53.32
2022-12-20T03:48:38.725Z,53.49
2022-12-20T03:51:06.993Z,53.38
2022-12-20T03:53:35.828Z,53.45
2022-12-20T03:56:04.138Z,53.26
2022-12-20T03:58:31.930Z,53.21
2022-12-20T04:01:01.081Z,53.07
2022-12-20T04:03:47.410Z,53.11
2022-12-20T04:06:16.463Z,53.15
2022-12-20T04:08:44.582Z,53.24
2022-12-20T04:11:16.557Z,53.29
2022-12-20T04:13:55.902Z,53.55
2022-12-20T04:16:26.383Z,53.19
2022-12-20T04:18:55.800Z,52.87
2022-12-20T04:21:27.004Z,53.29
2022-12-20T04:23:58.237Z,53.27
2022-12-20T04:26:32.647Z,53.36
2022-12-20T04:29:02.845Z,53.30
2022-12-20T04:31:30.943Z,52.88
2022-12-20T04:33:58.807Z,53.00
2022-12-20T04:36:27.264Z,53.18
2022-12-20T04:38:57.078Z,53.02
2022-12-20T04:41:24.820Z,53.13
2022-12-20T04:43:59.928Z,52.84
2022-12-20T04:46:36.207Z,53.09
2022-12-20T04:49:05.402Z,52.81
2022-12-20T04:51:35.409Z,53.30
2022-12-20T04:54:03.169Z,52.96
2022-12-20T04:56:42.935Z,53.27
2022-12-20T04:59:13.467Z,52.86
2022-12-20T05:01:43.838Z,52.96
2022-12-20T05:04:18.666Z,53.09
2022-12-20T05:06:46.592Z,52.89
2022-12-20T05:09:15.290Z,53.02
2022-12-20T05:11:43.088Z,52.99
2022-12-20T05:14:11.969Z,53.06
2022-12-20T05:16:39.774Z,53.02
2022-12-20T05:19:07.949Z,53.11
2022-12-20T05:21:58.673Z,53.07
2022-12-20T05:24:45.256Z,53.03
2022-12-20T05:27:28.155Z,52.77
2022-12-20T05:29:56.068Z,52.70
2022-12-20T05:32:25.189Z,52.87
2022-12-20T05:34:58.005Z,53.06
2022-12-20T05:37:26.019Z,52.58
2022-12-20T05:39:54.719Z,52.85
2022-12-20T05:42:24.729Z,52.69
2022-12-20T05:44:53.866Z,52.78
2022-12-20T05:47:22.910Z,52.90
2022-12-20T05:50:04.376Z,52.91
2022-12-20T05:52:37.926Z,53.08
2022-12-20T05:55:06.476Z,53.16
2022-12-20T05:57:35.265Z,53.15
2022-12-20T06:00:05.271Z,52.76
2022-12-20T06:02:44.686Z,53.25
2022-12-20T06:05:13.089Z,53.17
2022-12-20T06:07:40.884Z,53.25
2022-12-20T06:10:09.610Z,53.34
2022-12-20T06:12:46.411Z,53.54
2022-12-20T06:15:15.780Z,53.86
2022-12-20T06:17:43.828Z,53.13
2022-12-20T06:20:13.157Z,53.01
2022-12-20T06:22:43.511Z,52.92
2022-12-20T06:25:13.108Z,52.73
2022-12-20T06:27:42.430Z,52.77
2022-12-20T06:30:18.199Z,53.24
2022-12-20T06:33:04.651Z,53.11
2022-12-20T06:35:33.405Z,53.16
2022-12-20T06:38:02.419Z,53.58
2022-12-20T06:40:33.671Z,53.24
2022-12-20T06:43:02.273Z,53.37
2022-12-20T06:45:31.727Z,53.16
2022-12-20T06:48:02.815Z,53.37
2022-12-20T06:50:32.495Z,53.30
2022-12-20T06:53:00.139Z,53.04
2022-12-20T06:55:28.101Z,52.58
2022-12-20T06:57:56.486Z,51.70
2022-12-20T07:00:24.623Z,52.24
2022-12-20T07:02:52.428Z,52.05
2022-12-20T07:05:20.525Z,53.57
2022-12-20T07:07:48.225Z,53.25
2022-12-20T07:10:16.492Z,52.31
2022-12-20T07:12:48.110Z,52.55
2022-12-20T07:15:17.151Z,52.38
2022-12-20T07:17:45.465Z,52.17
2022-12-20T07:20:14.589Z,51.90
2022-12-20T07:22:43.056Z,52.39
2022-12-20T07:25:11.603Z,52.48
2022-12-20T07:27:39.837Z,52.24
2022-12-20T07:30:08.885Z,52.36
2022-12-20T07:32:36.754Z,52.66
2022-12-20T07:35:05.069Z,52.28
2022-12-20T07:37:33.029Z,52.58
2022-12-20T07:40:00.770Z,51.91
2022-12-20T07:42:35.801Z,52.48
2022-12-20T07:45:07.408Z,52.42
2022-12-20T07:47:36.049Z,52.42
2022-12-20T07:50:04.312Z,52.46
2022-12-20T07:52:33.934Z,52.55
2022-12-20T07:55:04.065Z,52.05
2022-12-20T07:57:42.175Z,52.15
2022-12-20T08:00:10.800Z,51.76
2022-12-20T08:02:54.281Z,52.75
2022-12-20T08:05:23.516Z,52.76
2022-12-20T08:07:58.702Z,52.42
2022-12-20T08:10:29.010Z,52.20
2022-12-20T08:12:58.164Z,52.13
2022-12-20T08:15:26.979Z,52.65
2022-12-20T08:17:54.672Z,52.28
2022-12-20T08:20:22.683Z,52.67
2022-12-20T08:22:50.504Z,52.77
2022-12-20T08:25:18.477Z,53.35
2022-12-20T08:27:46.276Z,53.18
2022-12-20T08:30:15.457Z,53.06
2022-12-20T08:32:43.780Z,53.47
2022-12-20T08:35:13.275Z,53.02
2022-12-20T08:37:40.935Z,53.43
2022-12-20T08:40:09.742Z,57.91
2022-12-20T08:42:37.375Z,56.59
2022-12-20T08:45:05.706Z,54.99
2022-12-20T08:47:34.035Z,53.64
2022-12-20T08:50:02.334Z,53.15
2022-12-20T08:52:31.304Z,52.75
2022-12-20T08:55:01.420Z,53.20
2022-12-20T08:57:29.963Z,52.87
2022-12-20T08:59:58.239Z,53.15
2022-12-20T09:02:26.874Z,53.14
2022-12-20T09:04:55.134Z,52.77
2022-12-20T09:07:22.972Z,52.67
2022-12-20T09:09:50.708Z,52.62
2022-12-20T09:12:18.617Z,53.11
2022-12-20T09:14:46.779Z,52.98
2022-12-20T09:17:15.416Z,52.81
2022-12-20T09:19:43.761Z,52.66
2022-12-20T09:22:11.943Z,52.79
2022-12-20T09:24:40.037Z,52.11
2022-12-20T09:27:07.818Z,51.97
2022-12-20T09:29:36.005Z,52.33
2022-12-20T09:32:04.304Z,51.73
2022-12-20T09:34:32.204Z,51.98
2022-12-20T09:37:00.245Z,52.10
2022-12-20T09:39:28.031Z,51.92
2022-12-20T09:41:58.487Z,51.82
2022-12-20T09:44:35.083Z,52.60
2022-12-20T09:47:12.851Z,52.71
2022-12-20T09:49:44.384Z,52.85
2022-12-20T09:52:18.084Z,52.90
2022-12-20T09:55:03.425Z,52.87
2022-12-20T09:57:48.383Z,52.92
2022-12-20T10:00:18.919Z,52.59
2022-12-20T10:03:08.724Z,52.42
2022-12-20T10:05:46.336Z,52.57
2022-12-20T10:08:33.200Z,52.64
2022-12-20T10:11:10.686Z,52.87
2022-12-20T10:14:02.358Z,52.56
2022-12-20T10:16:40.895Z,52.81
2022-12-20T10:19:27.279Z,52.83
2022-12-20T10:21:58.218Z,52.83
2022-12-20T10:24:30.670Z,52.79
2022-12-20T10:27:24.343Z,52.93
2022-12-20T10:29:52.886Z,53.03
2022-12-20T10:32:24.140Z,53.05
2022-12-20T10:35:15.290Z,53.05
2022-12-20T10:38:09.207Z,52.96
2022-12-20T10:43:36.853Z,53.58
2022-12-20T10:46:07.385Z,53.48
2022-12-20T10:48:43.328Z,53.45
2022-12-20T10:51:15.822Z,53.69
2022-12-20T10:53:56.971Z,53.44
2022-12-20T10:56:27.851Z,53.72
2022-12-20T10:59:03.213Z,53.23
2022-12-20T11:01:36.854Z,53.16
2022-12-20T11:04:08.345Z,52.97
2022-12-20T11:06:39.515Z,52.25
2022-12-20T11:09:32.164Z,51.45
2022-12-20T11:12:02.703Z,51.08
2022-12-20T11:14:38.872Z,50.72
2022-12-20T11:17:36.308Z,50.00
2022-12-20T11:20:13.857Z,49.46
2022-12-20T11:23:03.595Z,49.31
2022-12-20T11:25:52.370Z,49.02
2022-12-20T11:28:41.600Z,48.71
2022-12-20T11:31:29.721Z,48.79
2022-12-20T11:34:21.334Z,48.15
2022-12-20T11:37:14.427Z,48.54
2022-12-20T11:39:45.092Z,48.86
2022-12-20T11:42:25.023Z,48.43
2022-12-20T11:45:14.071Z,48.84
2022-12-20T11:48:06.393Z,49.34
2022-12-20T11:50:55.111Z,49.56
2022-12-20T11:53:49.707Z,49.48
2022-12-20T11:56:25.121Z,49.44
2022-12-20T11:59:13.778Z,49.23
2022-12-20T12:01:51.113Z,49.51
2022-12-20T12:04:30.342Z,49.80
2022-12-20T12:07:15.924Z,50.20
2022-12-20T12:10:19.072Z,50.37
2022-12-20T12:12:53.445Z,50.66
2022-12-20T12:15:56.990Z,51.14
2022-12-20T12:18:29.325Z,51.25
2022-12-20T12:21:09.553Z,51.11
2022-12-20T12:23:45.073Z,51.36
2022-12-20T12:26:21.645Z,51.16
2022-12-20T12:28:58.860Z,51.50
2022-12-20T12:31:30.073Z,51.43
2022-12-20T12:34:42.238Z,51.40
2022-12-20T12:37:46.727Z,51.77
2022-12-20T12:40:52.553Z,51.79
2022-12-20T12:43:42.781Z,52.30
2022-12-20T12:46:35.515Z,52.10
2022-12-20T12:49:17.907Z,52.37
2022-12-20T12:51:59.103Z,52.17
2022-12-20T12:54:30.506Z,52.44
2022-12-20T12:57:03.994Z,52.54
2022-12-20T12:59:34.913Z,52.84
2022-12-20T13:02:04.354Z,52.44
2022-12-20T13:04:54.827Z,52.50
2022-12-20T13:07:37.434Z,52.51
2022-12-20T13:10:18.496Z,52.40
2022-12-20T13:12:52.896Z,52.64
2022-12-20T13:15:20.807Z,52.47
2022-12-20T13:17:52.855Z,52.16
2022-12-20T13:20:22.641Z,52.15
2022-12-20T13:23:07.615Z,51.84
2022-12-20T13:25:43.382Z,51.60
2022-12-20T13:28:24.929Z,51.45
2022-12-20T13:31:02.111Z,51.65
2022-12-20T13:33:39.710Z,51.58
2022-12-20T13:36:10.950Z,51.41
2022-12-20T13:38:51.014Z,51.10
2022-12-20T13:41:38.884Z,50.92
2022-12-20T13:44:15.907Z,50.76
2022-12-20T13:46:57.393Z,50.77
2022-12-20T13:49:34.260Z,50.78
2022-12-20T13:52:21.342Z,50.24
2022-12-20T13:54:52.668Z,50.13
2022-12-20T13:57:31.102Z,49.77
2022-12-20T14:00:07.123Z,49.76
2022-12-20T14:02:42.166Z,49.73
2022-12-20T14:05:26.883Z,49.55
2022-12-20T14:08:09.582Z,49.52
2022-12-20T14:10:37.492Z,49.30
2022-12-20T14:13:24.058Z,49.23
2022-12-20T14:15:53.837Z,49.10
2022-12-20T14:18:24.901Z,48.95
2022-12-20T14:21:00.165Z,48.71
2022-12-20T14:23:51.034Z,48.63
2022-12-20T14:26:31.202Z,48.58
2022-12-20T14:29:01.605Z,48.88
2022-12-20T14:31:35.001Z,48.66
2022-12-20T14:34:07.300Z,48.96
2022-12-20T14:36:36.196Z,48.80
2022-12-20T14:39:26.389Z,48.07
2022-12-20T14:42:00.710Z,48.27
2022-12-20T14:44:31.591Z,47.82
2022-12-20T14:47:21.342Z,48.26
2022-12-20T14:49:52.742Z,48.72
2022-12-20T14:52:35.016Z,49.13
2022-12-20T14:55:14.622Z,49.41
2022-12-20T14:57:47.264Z,49.43
2022-12-20T15:00:21.873Z,49.36
2022-12-20T15:03:00.777Z,49.55
2022-12-20T15:05:36.967Z,49.23
2022-12-20T15:08:16.860Z,49.49
2022-12-20T15:10:52.723Z,49.59
2022-12-20T15:13:23.725Z,49.47
2022-12-20T15:15:51.681Z,49.74
2022-12-20T15:18:21.757Z,49.37
2022-12-20T15:21:05.258Z,49.55
2022-12-20T15:23:34.667Z,49.63
2022-12-20T15:26:03.004Z,49.82
2022-12-20T15:28:30.913Z,49.82
2022-12-20T15:31:00.463Z,49.63
2022-12-20T15:33:32.688Z,49.45
2022-12-20T15:36:00.497Z,49.88
2022-12-20T15:38:55.283Z,49.62
2022-12-20T15:41:22.152Z,49.80
2022-12-20T15:43:55.425Z,49.72
2022-12-20T15:46:23.961Z,49.64
2022-12-20T15:48:52.010Z,50.16
2022-12-20T15:51:33.046Z,50.04
2022-12-20T15:54:02.637Z,49.71
2022-12-20T15:56:30.888Z,49.78
2022-12-20T15:58:58.781Z,49.96
2022-12-20T16:01:40.423Z,50.00
2022-12-20T16:04:15.232Z,50.05
2022-12-20T16:06:44.550Z,50.17
2022-12-20T16:09:12.909Z,50.04
2022-12-20T16:11:41.492Z,50.12
2022-12-20T16:14:17.679Z,50.44
2022-12-20T16:16:47.977Z,49.94
2022-12-20T16:19:17.015Z,50.04
2022-12-20T16:21:50.125Z,50.30
2022-12-20T16:24:21.231Z,51.08
2022-12-20T16:26:49.529Z,50.60
2022-12-20T16:29:17.377Z,50.59
2022-12-20T16:31:45.292Z,50.53
2022-12-20T16:34:16.084Z,50.66
2022-12-20T16:36:44.154Z,50.76
2022-12-20T16:39:12.285Z,50.72
2022-12-20T16:41:42.336Z,50.78
2022-12-20T16:44:15.778Z,51.17
2022-12-20T16:46:44.190Z,50.95
2022-12-20T16:49:19.735Z,50.68
2022-12-20T16:51:49.495Z,50.91
2022-12-20T16:54:21.315Z,50.97
2022-12-20T16:56:55.286Z,51.05
2022-12-20T16:59:24.412Z,50.82
2022-12-20T17:01:54.818Z,51.17
2022-12-20T17:04:24.348Z,50.89
2022-12-20T17:06:52.174Z,50.86
2022-12-20T17:12:16.035Z,51.26
2022-12-20T17:14:45.326Z,51.19
2022-12-20T17:17:13.851Z,51.01
2022-12-20T17:19:41.956Z,51.26
2022-12-20T17:24:58.017Z,51.21
2022-12-20T17:27:25.869Z,50.81
2022-12-20T17:29:55.491Z,50.52
2022-12-20T17:32:27.309Z,50.38
2022-12-20T17:34:55.759Z,50.69
2022-12-20T17:37:24.918Z,50.85
2022-12-20T17:39:53.217Z,50.68
2022-12-20T17:42:25.571Z,51.21
2022-12-20T17:44:57.039Z,51.01
2022-12-20T17:47:25.044Z,51.05
2022-12-20T17:49:54.232Z,51.13
2022-12-20T17:52:21.951Z,51.63
2022-12-20T17:54:49.882Z,51.71
2022-12-20T17:57:17.700Z,51.52
2022-12-20T17:59:45.662Z,51.40
2022-12-20T18:02:25.612Z,51.64
2022-12-20T18:04:53.838Z,52.23
2022-12-20T18:07:21.853Z,51.89
2022-12-20T18:09:50.498Z,51.53
2022-12-20T18:12:18.517Z,51.72
2022-12-20T18:14:49.757Z,51.49
2022-12-20T18:17:20.388Z,51.33
2022-12-20T18:19:48.453Z,50.99
2022-12-20T18:22:16.224Z,51.05
2022-12-20T18:24:43.996Z,51.17
2022-12-20T18:27:12.279Z,51.70
2022-12-20T18:29:40.159Z,51.38
2022-12-20T18:32:08.417Z,51.46
2022-12-20T18:34:36.448Z,51.65
2022-12-20T18:37:05.824Z,51.05
2022-12-20T18:39:33.808Z,50.95
2022-12-20T18:42:01.828Z,51.11
2022-12-20T18:44:29.573Z,51.40
2022-12-20T18:46:57.388Z,51.23
2022-12-20T18:49:25.330Z,50.96
2022-12-20T18:51:53.122Z,51.25
2022-12-20T18:54:21.311Z,51.59
2022-12-20T18:56:51.435Z,51.59
2022-12-20T18:59:19.842Z,52.20
2022-12-20T19:01:47.994Z,51.55
2022-12-20T19:04:22.471Z,51.66
2022-12-20T19:06:52.375Z,51.75
2022-12-20T19:09:20.154Z,51.50
2022-12-20T19:11:53.033Z,51.64
2022-12-20T19:14:24.735Z,51.84
2022-12-20T19:16:54.985Z,51.25
2022-12-20T19:19:23.021Z,51.10
2022-12-20T19:21:50.707Z,51.05
2022-12-20T19:24:18.687Z,50.90
2022-12-20T19:26:46.528Z,50.65
2022-12-20T19:29:14.765Z,50.42
2022-12-20T19:31:42.741Z,50.79
2022-12-20T19:34:15.782Z,50.92
2022-12-20T19:36:45.607Z,51.66
2022-12-20T19:39:18.294Z,51.58
2022-12-20T19:42:07.510Z,51.33
2022-12-20T19:44:33.985Z,51.58
2022-12-20T19:47:06.366Z,51.71
2022-12-20T19:49:36.200Z,51.73
2022-12-20T19:52:06.042Z,51.57
2022-12-20T19:54:35.487Z,52.65
2022-12-20T19:57:03.764Z,52.01
2022-12-20T19:59:31.981Z,51.07
2022-12-20T20:02:00.759Z,50.94
2022-12-20T20:04:29.633Z,50.83
2022-12-20T20:06:57.422Z,51.94
2022-12-20T20:09:25.750Z,52.04
2022-12-20T20:11:53.604Z,51.72
2022-12-20T20:14:21.965Z,51.91
2022-12-20T20:16:49.951Z,52.05
2022-12-20T20:19:18.836Z,53.90
2022-12-20T20:21:49.201Z,54.58
2022-12-20T20:24:17.354Z,52.64
2022-12-20T20:26:45.067Z,53.06
2022-12-20T20:29:12.950Z,53.51
2022-12-20T20:31:41.079Z,52.62
2022-12-20T20:34:10.543Z,52.09
2022-12-20T20:36:38.550Z,52.04
2022-12-20T20:39:06.975Z,52.21
2022-12-20T20:41:34.944Z,52.06
2022-12-20T20:44:04.407Z,51.93
2022-12-20T20:46:32.972Z,51.30
2022-12-20T20:49:03.197Z,51.27
2022-12-20T20:51:31.768Z,51.25
2022-12-20T20:54:00.516Z,51.38
2022-12-20T20:56:28.290Z,50.91
2022-12-20T20:59:02.652Z,51.46
2022-12-20T21:01:35.763Z,51.45
2022-12-20T21:04:04.661Z,51.25
2022-12-20T21:06:41.117Z,51.21
2022-12-20T21:09:10.454Z,51.34
2022-12-20T21:11:39.916Z,51.38
2022-12-20T21:14:08.037Z,51.40
2022-12-20T21:16:36.985Z,51.51
2022-12-20T21:19:06.164Z,51.56
2022-12-20T21:21:34.104Z,51.06
2022-12-20T21:24:03.622Z,51.18
2022-12-20T21:26:31.823Z,50.86
2022-12-20T21:29:01.159Z,50.74
2022-12-20T21:31:29.676Z,50.25
2022-12-20T21:33:58.417Z,50.45
2022-12-20T21:36:26.516Z,50.42
2022-12-20T21:38:58.260Z,50.76
2022-12-20T21:41:29.687Z,50.94
2022-12-20T21:44:00.320Z,50.76
2022-12-20T21:46:29.791Z,50.89
2022-12-20T21:49:00.132Z,51.12
2022-12-20T21:51:29.985Z,51.14
2022-12-20T21:54:00.723Z,51.01
2022-12-20T21:56:30.945Z,51.84
2022-12-20T21:58:59.346Z,52.18
2022-12-20T22:01:28.883Z,51.09
2022-12-20T22:04:02.654Z,51.36
2022-12-20T22:06:31.774Z,51.41
2022-12-20T22:09:01.479Z,51.16
2022-12-20T22:11:29.466Z,50.97
2022-12-20T22:13:58.452Z,50.79
2022-12-20T22:16:31.127Z,51.09
2022-12-20T22:18:59.934Z,50.79
2022-12-20T22:21:57.466Z,50.99
2022-12-20T22:24:25.723Z,50.46
2022-12-20T22:26:53.563Z,50.87
2022-12-20T22:29:26.239Z,50.66
2022-12-20T22:31:54.313Z,50.91
2022-12-20T22:34:22.243Z,50.91
2022-12-20T22:36:52.497Z,50.57
2022-12-20T22:39:21.276Z,50.39
2022-12-20T22:41:49.002Z,50.67
2022-12-20T22:44:16.936Z,50.59
2022-12-20T22:49:30.158Z,50.71
2022-12-20T22:52:06.781Z,50.39
2022-12-20T22:54:35.613Z,50.30
2022-12-20T22:57:03.599Z,50.55
2022-12-20T22:59:32.633Z,50.11
2022-12-20T23:02:00.962Z,50.07
2022-12-20T23:04:28.877Z,50.08
2022-12-20T23:06:58.025Z,49.94
2022-12-20T23:09:26.390Z,50.15
2022-12-20T23:12:12.633Z,49.79
2022-12-20T23:15:03.627Z,49.97
2022-12-20T23:17:33.449Z,49.88
2022-12-20T23:20:19.830Z,49.85
2022-12-20T23:22:47.623Z,49.73
2022-12-20T23:25:18.719Z,49.68
2022-12-20T23:27:48.774Z,49.76
2022-12-20T23:30:20.326Z,49.83
2022-12-20T23:32:49.131Z,49.64
2022-12-20T23:35:20.362Z,49.77
2022-12-20T23:37:49.683Z,49.64
2022-12-20T23:40:18.701Z,49.47
2022-12-20T23:42:46.733Z,49.28
2022-12-20T23:45:16.385Z,49.13
2022-12-20T23:47:44.155Z,48.96
2022-12-20T23:50:11.912Z,48.55
2022-12-20T23:52:39.880Z,48.93
2022-12-20T23:55:08.062Z,49.14
2022-12-20T23:57:35.788Z,49.64
